sensor_id;sensor_type;location;lat;lon;timestamp;pressure;altitude;pressure_sealevel;temperature;humidity
20889;BME280;10604;51.976;7.594;2022-09-23T00:00:09;101113.06;;;24.04;34.08
20889;BME280;10604;51.976;7.594;2022-09-23T00:02:35;101109.53;;;23.93;33.88
20889;BME280;10604;51.976;7.594;2022-09-23T00:05:00;101107.53;;;23.95;34.11
20889;BME280;10604;51.976;7.594;2022-09-23T00:07:25;101106.56;;;23.85;33.89
20889;BME280;10604;51.976;7.594;2022-09-23T00:09:51;101104.84;;;23.84;34.27
20889;BME280;10604;51.976;7.594;2022-09-23T00:12:16;101102.88;;;23.63;34.02
20889;BME280;10604;51.976;7.594;2022-09-23T00:14:42;101095.78;;;23.62;34.61
20889;BME280;10604;51.976;7.594;2022-09-23T00:17:07;101098.97;;;23.67;34.09
20889;BME280;10604;51.976;7.594;2022-09-23T00:19:33;101100.63;;;23.46;34.61
20889;BME280;10604;51.976;7.594;2022-09-23T00:21:58;101104.25;;;23.23;34.89
20889;BME280;10604;51.976;7.594;2022-09-23T00:24:23;101097.78;;;23.36;34.26
20889;BME280;10604;51.976;7.594;2022-09-23T00:26:49;101091.56;;;23.47;34.52
20889;BME280;10604;51.976;7.594;2022-09-23T00:29:15;101090.09;;;23.43;34.51
20889;BME280;10604;51.976;7.594;2022-09-23T00:31:41;101087.94;;;23.48;33.91
20889;BME280;10604;51.976;7.594;2022-09-23T00:34:09;101086.75;;;23.28;34.60
20889;BME280;10604;51.976;7.594;2022-09-23T00:36:35;101082.47;;;23.26;34.65
20889;BME280;10604;51.976;7.594;2022-09-23T00:39:00;101084.66;;;23.21;34.59
20889;BME280;10604;51.976;7.594;2022-09-23T00:41:28;101080.75;;;23.25;34.40
20889;BME280;10604;51.976;7.594;2022-09-23T00:43:58;101081.97;;;23.32;34.65
20889;BME280;10604;51.976;7.594;2022-09-23T00:46:41;101083.16;;;23.52;34.41
20889;BME280;10604;51.976;7.594;2022-09-23T00:49:28;101085.66;;;23.31;34.25
20889;BME280;10604;51.976;7.594;2022-09-23T00:52:00;101078.56;;;23.30;34.76
20889;BME280;10604;51.976;7.594;2022-09-23T00:54:29;101071.22;;;23.32;34.41
20889;BME280;10604;51.976;7.594;2022-09-23T00:56:56;101077.06;;;23.26;34.56
20889;BME280;10604;51.976;7.594;2022-09-23T00:59:23;101079.28;;;23.32;34.78
20889;BME280;10604;51.976;7.594;2022-09-23T01:01:51;101065.34;;;23.27;34.94
20889;BME280;10604;51.976;7.594;2022-09-23T01:04:20;101074.09;;;23.53;34.31
20889;BME280;10604;51.976;7.594;2022-09-23T01:06:47;101073.75;;;23.79;34.13
20889;BME280;10604;51.976;7.594;2022-09-23T01:09:13;101070.28;;;23.44;34.55
20889;BME280;10604;51.976;7.594;2022-09-23T01:11:47;101064.34;;;23.28;35.01
20889;BME280;10604;51.976;7.594;2022-09-23T01:17:10;101062.97;;;23.57;34.81
20889;BME280;10604;51.976;7.594;2022-09-23T01:25:24;101051.22;;;23.58;34.71
20889;BME280;10604;51.976;7.594;2022-09-23T01:28:21;101061.25;;;23.67;34.42
20889;BME280;10604;51.976;7.594;2022-09-23T01:34:25;101044.13;;;23.57;34.55
20889;BME280;10604;51.976;7.594;2022-09-23T01:37:06;101046.91;;;23.56;34.66
20889;BME280;10604;51.976;7.594;2022-09-23T01:39:48;101046.69;;;23.59;34.54
20889;BME280;10604;51.976;7.594;2022-09-23T01:42:22;101042.63;;;23.75;34.53
20889;BME280;10604;51.976;7.594;2022-09-23T01:44:59;101049.00;;;23.63;34.30
20889;BME280;10604;51.976;7.594;2022-09-23T01:47:36;101041.50;;;23.45;34.72
20889;BME280;10604;51.976;7.594;2022-09-23T01:50:07;101043.78;;;23.27;35.10
20889;BME280;10604;51.976;7.594;2022-09-23T01:52:55;101039.88;;;23.20;35.07
20889;BME280;10604;51.976;7.594;2022-09-23T01:55:32;101038.41;;;23.38;35.19
20889;BME280;10604;51.976;7.594;2022-09-23T01:58:11;101042.06;;;23.15;35.43
20889;BME280;10604;51.976;7.594;2022-09-23T02:00:42;101038.63;;;23.24;35.29
20889;BME280;10604;51.976;7.594;2022-09-23T02:03:16;101035.66;;;23.04;35.58
20889;BME280;10604;51.976;7.594;2022-09-23T02:05:47;101029.03;;;22.97;35.66
20889;BME280;10604;51.976;7.594;2022-09-23T02:08:21;101034.41;;;22.86;35.47
20889;BME280;10604;51.976;7.594;2022-09-23T02:10:56;101028.97;;;22.75;35.59
20889;BME280;10604;51.976;7.594;2022-09-23T02:15:52;101025.31;;;22.76;35.74
20889;BME280;10604;51.976;7.594;2022-09-23T02:18:26;101026.56;;;22.83;36.13
20889;BME280;10604;51.976;7.594;2022-09-23T02:20:57;101021.88;;;22.74;36.04
20889;BME280;10604;51.976;7.594;2022-09-23T02:23:45;101024.28;;;22.66;36.28
20889;BME280;10604;51.976;7.594;2022-09-23T02:26:20;101025.31;;;22.76;35.74
20889;BME280;10604;51.976;7.594;2022-09-23T02:28:48;101024.97;;;22.57;36.25
20889;BME280;10604;51.976;7.594;2022-09-23T02:31:27;101018.03;;;22.42;36.22
20889;BME280;10604;51.976;7.594;2022-09-23T02:39:22;101011.22;;;22.49;36.13
20889;BME280;10604;51.976;7.594;2022-09-23T02:41:58;101009.22;;;22.40;36.21
20889;BME280;10604;51.976;7.594;2022-09-23T02:44:26;101004.28;;;22.22;36.51
20889;BME280;10604;51.976;7.594;2022-09-23T02:46:53;101012.56;;;22.43;36.15
20889;BME280;10604;51.976;7.594;2022-09-23T02:49:19;101006.41;;;22.65;36.00
20889;BME280;10604;51.976;7.594;2022-09-23T02:51:46;101008.34;;;22.63;36.15
20889;BME280;10604;51.976;7.594;2022-09-23T02:54:15;100999.22;;;22.42;36.33
20889;BME280;10604;51.976;7.594;2022-09-23T02:56:41;101006.03;;;22.35;36.44
20889;BME280;10604;51.976;7.594;2022-09-23T02:59:08;101011.22;;;22.49;36.36
20889;BME280;10604;51.976;7.594;2022-09-23T03:04:15;100993.63;;;22.45;36.09
20889;BME280;10604;51.976;7.594;2022-09-23T03:09:54;100990.47;;;22.27;36.21
20889;BME280;10604;51.976;7.594;2022-09-23T03:12:41;100984.03;;;22.30;35.96
20889;BME280;10604;51.976;7.594;2022-09-23T03:15:40;100972.16;;;22.32;36.24
20889;BME280;10604;51.976;7.594;2022-09-23T03:18:10;100975.78;;;22.44;35.88
20889;BME280;10604;51.976;7.594;2022-09-23T03:21:02;100980.72;;;22.02;36.29
20889;BME280;10604;51.976;7.594;2022-09-23T03:23:32;100975.88;;;22.18;36.07
20889;BME280;10604;51.976;7.594;2022-09-23T03:26:07;100972.50;;;22.04;36.41
20889;BME280;10604;51.976;7.594;2022-09-23T03:28:35;100968.00;;;22.04;36.35
20889;BME280;10604;51.976;7.594;2022-09-23T03:31:01;100969.50;;;22.08;36.33
20889;BME280;10604;51.976;7.594;2022-09-23T03:33:29;100968.00;;;22.04;36.46
20889;BME280;10604;51.976;7.594;2022-09-23T03:36:02;100966.69;;;22.10;36.47
20889;BME280;10604;51.976;7.594;2022-09-23T03:38:50;100961.66;;;22.05;36.71
20889;BME280;10604;51.976;7.594;2022-09-23T03:41:25;100963.28;;;21.95;36.83
20889;BME280;10604;51.976;7.594;2022-09-23T03:43:56;100964.81;;;21.86;36.40
20889;BME280;10604;51.976;7.594;2022-09-23T03:46:25;100961.84;;;21.78;37.20
20889;BME280;10604;51.976;7.594;2022-09-23T03:48:51;100961.75;;;21.67;36.89
20889;BME280;10604;51.976;7.594;2022-09-23T03:51:21;100951.44;;;21.61;37.46
20889;BME280;10604;51.976;7.594;2022-09-23T03:53:51;100953.06;;;21.64;37.08
20889;BME280;10604;51.976;7.594;2022-09-23T03:56:16;100952.16;;;21.76;37.10
20889;BME280;10604;51.976;7.594;2022-09-23T03:58:41;100954.34;;;21.71;37.13
20889;BME280;10604;51.976;7.594;2022-09-23T04:01:09;100950.03;;;21.68;36.89
20889;BME280;10604;51.976;7.594;2022-09-23T04:03:35;100946.22;;;21.60;37.12
20889;BME280;10604;51.976;7.594;2022-09-23T04:06:00;100954.34;;;21.71;37.03
20889;BME280;10604;51.976;7.594;2022-09-23T04:08:25;100944.72;;;21.56;36.94
20889;BME280;10604;51.976;7.594;2022-09-23T04:10:51;100943.22;;;21.52;37.11
20889;BME280;10604;51.976;7.594;2022-09-23T04:13:16;100947.84;;;21.49;36.92
20889;BME280;10604;51.976;7.594;2022-09-23T04:15:42;100946.38;;;21.69;36.47
20889;BME280;10604;51.976;7.594;2022-09-23T04:18:07;100948.31;;;21.80;36.38
20889;BME280;10604;51.976;7.594;2022-09-23T04:20:32;100946.84;;;21.63;36.41
20889;BME280;10604;51.976;7.594;2022-09-23T04:22:58;100936.34;;;21.47;36.89
20889;BME280;10604;51.976;7.594;2022-09-23T04:25:23;100943.22;;;21.52;36.88
20889;BME280;10604;51.976;7.594;2022-09-23T04:27:48;100939.56;;;21.40;36.65
20889;BME280;10604;51.976;7.594;2022-09-23T04:30:14;100927.00;;;21.40;36.64
20889;BME280;10604;51.976;7.594;2022-09-23T04:32:39;100928.06;;;21.51;35.90
20889;BME280;10604;51.976;7.594;2022-09-23T04:35:06;100936.28;;;21.73;36.20
20889;BME280;10604;51.976;7.594;2022-09-23T04:37:31;100927.22;;;21.86;35.79
20889;BME280;10604;51.976;7.594;2022-09-23T04:39:56;100920.72;;;21.89;35.70
20889;BME280;10604;51.976;7.594;2022-09-23T04:42:22;100923.28;;;22.03;35.47
20889;BME280;10604;51.976;7.594;2022-09-23T04:44:47;100930.28;;;21.69;35.63
20889;BME280;10604;51.976;7.594;2022-09-23T04:47:12;100927.03;;;21.77;35.66
20889;BME280;10604;51.976;7.594;2022-09-23T04:49:38;100920.91;;;21.38;36.21
20889;BME280;10604;51.976;7.594;2022-09-23T04:52:04;100923.28;;;20.80;36.96
20889;BME280;10604;51.976;7.594;2022-09-23T04:54:30;100913.09;;;20.85;37.22
20889;BME280;10604;51.976;7.594;2022-09-23T04:56:56;100914.38;;;21.30;36.61
20889;BME280;10604;51.976;7.594;2022-09-23T04:59:21;100915.09;;;21.44;35.91
20889;BME280;10604;51.976;7.594;2022-09-23T05:01:46;100907.97;;;21.56;36.03
20889;BME280;10604;51.976;7.594;2022-09-23T05:04:12;100915.84;;;21.46;36.13
20889;BME280;10604;51.976;7.594;2022-09-23T05:06:38;100915.09;;;21.44;36.05
20889;BME280;10604;51.976;7.594;2022-09-23T05:09:06;100906.53;;;21.27;35.99
20889;BME280;10604;51.976;7.594;2022-09-23T05:11:32;100913.72;;;20.50;37.11
20889;BME280;10604;51.976;7.594;2022-09-23T05:13:58;100909.50;;;20.46;37.68
20889;BME280;10604;51.976;7.594;2022-09-23T05:16:23;100907.16;;;20.54;37.45
20889;BME280;10604;51.976;7.594;2022-09-23T05:18:50;100908.03;;;20.55;37.82
20889;BME280;10604;51.976;7.594;2022-09-23T05:21:25;100907.19;;;20.80;37.15
20889;BME280;10604;51.976;7.594;2022-09-23T05:23:56;100900.78;;;20.95;36.83
20889;BME280;10604;51.976;7.594;2022-09-23T05:26:27;100900.78;;;20.95;36.61
20889;BME280;10604;51.976;7.594;2022-09-23T05:28:54;100898.16;;;21.06;36.48
20889;BME280;10604;51.976;7.594;2022-09-23T05:31:24;100900.00;;;20.93;36.90
20889;BME280;10604;51.976;7.594;2022-09-23T05:33:53;100901.22;;;20.89;36.83
20889;BME280;10604;51.976;7.594;2022-09-23T05:36:20;100907.28;;;20.91;36.92
20889;BME280;10604;51.976;7.594;2022-09-23T05:38:47;100906.13;;;20.82;37.16
20889;BME280;10604;51.976;7.594;2022-09-23T05:41:14;100916.84;;;20.82;37.07
20889;BME280;10604;51.976;7.594;2022-09-23T05:43:40;100911.50;;;20.95;36.72
20889;BME280;10604;51.976;7.594;2022-09-23T05:46:07;100914.50;;;20.78;37.34
20889;BME280;10604;51.976;7.594;2022-09-23T05:48:34;100920.28;;;20.71;37.59
20889;BME280;10604;51.976;7.594;2022-09-23T05:51:00;100925.09;;;20.92;37.22
20889;BME280;10604;51.976;7.594;2022-09-23T05:53:27;100920.72;;;20.78;37.24
20889;BME280;10604;51.976;7.594;2022-09-23T05:55:54;100932.28;;;21.04;37.00
20889;BME280;10604;51.976;7.594;2022-09-23T05:58:20;100933.03;;;21.06;37.57
20889;BME280;10604;51.976;7.594;2022-09-23T06:00:47;100931.66;;;21.13;37.43
20889;BME280;10604;51.976;7.594;2022-09-23T06:03:15;100930.88;;;21.11;37.24
20889;BME280;10604;51.976;7.594;2022-09-23T06:05:41;100928.44;;;21.33;37.10
20889;BME280;10604;51.976;7.594;2022-09-23T06:08:07;100924.88;;;21.45;36.87
20889;BME280;10604;51.976;7.594;2022-09-23T06:10:40;100921.28;;;21.58;36.92
20889;BME280;10604;51.976;7.594;2022-09-23T06:13:06;100925.81;;;21.57;36.57
20889;BME280;10604;51.976;7.594;2022-09-23T06:15:32;100924.28;;;21.66;36.87
20889;BME280;10604;51.976;7.594;2022-09-23T06:17:58;100924.59;;;21.74;37.08
20889;BME280;10604;51.976;7.594;2022-09-23T06:20:24;100929.59;;;21.78;36.90
20889;BME280;10604;51.976;7.594;2022-09-23T06:22:49;100925.31;;;21.76;37.57
20889;BME280;10604;51.976;7.594;2022-09-23T06:25:14;100921.91;;;21.74;37.35
20889;BME280;10604;51.976;7.594;2022-09-23T06:27:40;100925.53;;;21.73;37.53
20889;BME280;10604;51.976;7.594;2022-09-23T06:30:06;100926.81;;;21.67;37.40
20889;BME280;10604;51.976;7.594;2022-09-23T06:32:32;100919.47;;;21.82;37.72
20889;BME280;10604;51.976;7.594;2022-09-23T06:34:57;100920.97;;;21.86;37.39
20889;BME280;10604;51.976;7.594;2022-09-23T06:37:23;100917.41;;;21.62;38.12
20889;BME280;10604;51.976;7.594;2022-09-23T06:39:48;100910.56;;;21.58;37.15
20889;BME280;10604;51.976;7.594;2022-09-23T06:42:14;100913.09;;;21.72;37.84
20889;BME280;10604;51.976;7.594;2022-09-23T06:44:41;100919.06;;;21.88;36.90
20889;BME280;10604;51.976;7.594;2022-09-23T06:47:06;100924.38;;;22.01;37.18
20889;BME280;10604;51.976;7.594;2022-09-23T06:49:32;100917.47;;;22.09;37.71
20889;BME280;10604;51.976;7.594;2022-09-23T06:51:58;100914.78;;;22.09;37.92
20889;BME280;10604;51.976;7.594;2022-09-23T06:54:23;100916.44;;;21.99;38.05
20889;BME280;10604;51.976;7.594;2022-09-23T06:56:52;100915.38;;;22.02;38.16
20889;BME280;10604;51.976;7.594;2022-09-23T06:59:18;100918.41;;;22.32;37.95
20889;BME280;10604;51.976;7.594;2022-09-23T07:01:43;100916.38;;;22.47;37.46
20889;BME280;10604;51.976;7.594;2022-09-23T07:04:11;100917.19;;;22.71;36.94
20889;BME280;10604;51.976;7.594;2022-09-23T07:06:37;100908.91;;;22.96;37.10
20889;BME280;10604;51.976;7.594;2022-09-23T07:09:03;100912.84;;;23.15;36.94
20889;BME280;10604;51.976;7.594;2022-09-23T07:11:29;100908.53;;;22.90;37.30
20889;BME280;10604;51.976;7.594;2022-09-23T07:13:54;100908.78;;;23.09;37.03
20889;BME280;10604;51.976;7.594;2022-09-23T07:16:20;100915.53;;;23.26;36.91
20889;BME280;10604;51.976;7.594;2022-09-23T07:18:45;100917.28;;;23.49;37.16
20889;BME280;10604;51.976;7.594;2022-09-23T07:21:16;100920.91;;;23.70;36.64
20889;BME280;10604;51.976;7.594;2022-09-23T07:23:48;100916.72;;;23.77;36.97
20889;BME280;10604;51.976;7.594;2022-09-23T07:26:17;100916.97;;;23.86;36.42
20889;BME280;10604;51.976;7.594;2022-09-23T07:28:43;100925.16;;;24.27;35.36
20889;BME280;10604;51.976;7.594;2022-09-23T07:31:12;100922.22;;;24.19;35.97
20889;BME280;10604;51.976;7.594;2022-09-23T07:33:39;100925.06;;;24.49;35.73
20889;BME280;10604;51.976;7.594;2022-09-23T07:36:11;100930.72;;;24.46;36.10
20889;BME280;10604;51.976;7.594;2022-09-23T07:38:37;100931.13;;;24.63;35.34
20889;BME280;10604;51.976;7.594;2022-09-23T07:41:08;100929.66;;;24.58;35.16
20889;BME280;10604;51.976;7.594;2022-09-23T07:43:35;100928.63;;;24.71;35.76
20889;BME280;10604;51.976;7.594;2022-09-23T07:46:04;100919.97;;;25.18;35.45
20889;BME280;10604;51.976;7.594;2022-09-23T07:48:31;100924.78;;;25.55;34.39
20889;BME280;10604;51.976;7.594;2022-09-23T07:50:56;100928.84;;;25.40;34.65
20889;BME280;10604;51.976;7.594;2022-09-23T07:53:24;100934.31;;;25.19;34.75
20889;BME280;10604;51.976;7.594;2022-09-23T07:55:54;100927.22;;;25.58;33.83
20889;BME280;10604;51.976;7.594;2022-09-23T07:58:20;100926.00;;;25.71;34.20
20889;BME280;10604;51.976;7.594;2022-09-23T08:00:46;100926.16;;;25.70;33.64
20889;BME280;10604;51.976;7.594;2022-09-23T08:03:11;100922.94;;;26.15;33.82
20889;BME280;10604;51.976;7.594;2022-09-23T08:05:36;100926.06;;;26.20;33.85
20889;BME280;10604;51.976;7.594;2022-09-23T08:08:03;100928.09;;;26.56;32.27
20889;BME280;10604;51.976;7.594;2022-09-23T08:10:31;100930.03;;;26.83;32.45
20889;BME280;10604;51.976;7.594;2022-09-23T08:12:57;100925.75;;;27.00;32.14
20889;BME280;10604;51.976;7.594;2022-09-23T08:15:22;100928.03;;;26.95;32.11
20889;BME280;10604;51.976;7.594;2022-09-23T08:17:48;100932.56;;;27.04;32.21
20889;BME280;10604;51.976;7.594;2022-09-23T08:20:13;100926.94;;;27.61;31.74
20889;BME280;10604;51.976;7.594;2022-09-23T08:22:58;100921.63;;;27.33;31.92
20889;BME280;10604;51.976;7.594;2022-09-23T08:25:24;100923.50;;;26.66;31.74
20889;BME280;10604;51.976;7.594;2022-09-23T08:27:49;100921.59;;;27.05;31.62
20889;BME280;10604;51.976;7.594;2022-09-23T08:30:16;100915.09;;;27.80;31.63
20889;BME280;10604;51.976;7.594;2022-09-23T08:32:41;100921.38;;;27.26;30.90
20889;BME280;10604;51.976;7.594;2022-09-23T08:35:07;100921.84;;;27.94;31.13
20889;BME280;10604;51.976;7.594;2022-09-23T08:37:32;100916.41;;;28.39;31.17
20889;BME280;10604;51.976;7.594;2022-09-23T08:39:58;100920.66;;;28.06;29.84
20889;BME280;10604;51.976;7.594;2022-09-23T08:42:28;100922.66;;;28.04;30.33
20889;BME280;10604;51.976;7.594;2022-09-23T08:44:59;100925.50;;;28.73;30.28
20889;BME280;10604;51.976;7.594;2022-09-23T08:47:31;100916.75;;;29.13;30.18
20889;BME280;10604;51.976;7.594;2022-09-23T08:50:22;100916.84;;;29.30;29.39
20889;BME280;10604;51.976;7.594;2022-09-23T08:53:03;100914.28;;;29.54;30.08
20889;BME280;10604;51.976;7.594;2022-09-23T08:55:34;100920.81;;;29.85;28.56
20889;BME280;10604;51.976;7.594;2022-09-23T08:58:23;100914.28;;;29.54;29.43
20889;BME280;10604;51.976;7.594;2022-09-23T09:01:17;100920.59;;;30.29;27.72
20889;BME280;10604;51.976;7.594;2022-09-23T09:04:00;100919.94;;;30.67;28.01
20889;BME280;10604;51.976;7.594;2022-09-23T09:09:01;100904.25;;;30.29;27.74
20889;BME280;10604;51.976;7.594;2022-09-23T09:11:34;100911.75;;;30.19;27.47
20889;BME280;10604;51.976;7.594;2022-09-23T09:14:13;100914.78;;;30.48;27.49
20889;BME280;10604;51.976;7.594;2022-09-23T09:16:54;100908.84;;;30.36;27.69
20889;BME280;10604;51.976;7.594;2022-09-23T09:19:31;100913.25;;;30.21;28.80
20889;BME280;10604;51.976;7.594;2022-09-23T09:22:02;100918.91;;;30.44;27.59
20889;BME280;10604;51.976;7.594;2022-09-23T09:24:33;100911.78;;;30.59;27.74
20889;BME280;10604;51.976;7.594;2022-09-23T09:27:17;100913.47;;;30.60;28.44
20889;BME280;10604;51.976;7.594;2022-09-23T09:29:49;100913.59;;;30.91;27.73
20889;BME280;10604;51.976;7.594;2022-09-23T09:34:48;100910.66;;;31.25;27.22
20889;BME280;10604;51.976;7.594;2022-09-23T09:37:40;100897.63;;;30.80;27.65
20889;BME280;10604;51.976;7.594;2022-09-23T09:40:12;100907.25;;;31.15;26.68
20889;BME280;10604;51.976;7.594;2022-09-23T09:42:40;100907.09;;;31.56;26.72
20889;BME280;10604;51.976;7.594;2022-09-23T09:48:08;100899.59;;;31.58;27.35
20889;BME280;10604;51.976;7.594;2022-09-23T09:53:26;100891.25;;;32.13;26.15
20889;BME280;10604;51.976;7.594;2022-09-23T10:00:58;100892.69;;;32.69;25.30
20889;BME280;10604;51.976;7.594;2022-09-23T10:03:32;100901.38;;;32.50;24.07
20889;BME280;10604;51.976;7.594;2022-09-23T10:06:13;100898.41;;;32.14;25.64
20889;BME280;10604;51.976;7.594;2022-09-23T10:08:38;100889.47;;;31.27;26.22
20889;BME280;10604;51.976;7.594;2022-09-23T10:11:16;100881.69;;;32.17;25.32
20889;BME280;10604;51.976;7.594;2022-09-23T10:16:25;100884.34;;;33.15;24.63
20889;BME280;10604;51.976;7.594;2022-09-23T10:18:51;100889.88;;;32.40;23.65
20889;BME280;10604;51.976;7.594;2022-09-23T10:21:22;100889.44;;;32.51;23.90
20889;BME280;10604;51.976;7.594;2022-09-23T10:23:50;100872.84;;;33.34;24.25
20889;BME280;10604;51.976;7.594;2022-09-23T10:26:25;100881.59;;;33.15;23.84
20889;BME280;10604;51.976;7.594;2022-09-23T10:28:52;100874.81;;;33.40;22.91
20889;BME280;10604;51.976;7.594;2022-09-23T10:31:32;100863.78;;;33.33;22.53
20889;BME280;10604;51.976;7.594;2022-09-23T10:33:59;100871.19;;;33.54;22.97
20889;BME280;10604;51.976;7.594;2022-09-23T10:36:27;100871.34;;;32.50;24.04
20889;BME280;10604;51.976;7.594;2022-09-23T10:38:56;100866.13;;;32.92;23.45
20889;BME280;10604;51.976;7.594;2022-09-23T10:41:59;100872.34;;;32.86;22.88
20889;BME280;10604;51.976;7.594;2022-09-23T10:45:00;100864.25;;;33.08;23.42
20889;BME280;10604;51.976;7.594;2022-09-23T10:48:05;100870.63;;;33.73;23.15
20889;BME280;10604;51.976;7.594;2022-09-23T10:51:13;100866.41;;;32.97;23.46
20889;BME280;10604;51.976;7.594;2022-09-23T10:54:03;100858.91;;;33.79;23.59
20889;BME280;10604;51.976;7.594;2022-09-23T10:56:53;100863.34;;;33.80;23.72
20889;BME280;10604;51.976;7.594;2022-09-23T10:59:34;100860.78;;;33.64;22.77
20889;BME280;10604;51.976;7.594;2022-09-23T11:02:22;100859.72;;;33.15;24.14
20889;BME280;10604;51.976;7.594;2022-09-23T11:07:35;100843.38;;;33.87;23.24
20889;BME280;10604;51.976;7.594;2022-09-23T11:16:10;100845.38;;;32.83;23.46
20889;BME280;10604;51.976;7.594;2022-09-23T11:27:11;100841.19;;;32.58;24.06
20889;BME280;10604;51.976;7.594;2022-09-23T11:35:17;100825.19;;;33.14;23.40
20889;BME280;10604;51.976;7.594;2022-09-23T11:37:49;100827.47;;;32.28;23.54
20889;BME280;10604;51.976;7.594;2022-09-23T11:40:37;100819.06;;;33.62;22.98
20889;BME280;10604;51.976;7.594;2022-09-23T11:43:11;100818.84;;;34.21;22.94
20889;BME280;10604;51.976;7.594;2022-09-23T11:45:45;100822.56;;;34.63;22.45
20889;BME280;10604;51.976;7.594;2022-09-23T11:48:17;100812.59;;;34.83;22.39
20889;BME280;10604;51.976;7.594;2022-09-23T11:50:58;100819.66;;;33.72;22.03
20889;BME280;10604;51.976;7.594;2022-09-23T11:53:48;100805.13;;;34.42;22.70
20889;BME280;10604;51.976;7.594;2022-09-23T11:56:26;100817.53;;;35.42;21.58
20889;BME280;10604;51.976;7.594;2022-09-23T11:59:03;100807.94;;;35.85;21.60
20889;BME280;10604;51.976;7.594;2022-09-23T12:01:35;100812.13;;;35.75;21.77
20889;BME280;10604;51.976;7.594;2022-09-23T12:04:39;100811.09;;;36.88;21.54
20889;BME280;10604;51.976;7.594;2022-09-23T12:09:55;100810.03;;;35.83;20.75
20889;BME280;10604;51.976;7.594;2022-09-23T12:17:49;100804.16;;;36.13;20.96
20889;BME280;10604;51.976;7.594;2022-09-23T12:23:46;100795.72;;;36.34;21.66
20889;BME280;10604;51.976;7.594;2022-09-23T12:26:18;100794.16;;;35.59;21.83
20889;BME280;10604;51.976;7.594;2022-09-23T12:28:49;100791.41;;;35.59;20.69
20889;BME280;10604;51.976;7.594;2022-09-23T12:31:17;100792.72;;;35.76;21.88
20889;BME280;10604;51.976;7.594;2022-09-23T12:33:48;100789.16;;;35.21;20.82
20889;BME280;10604;51.976;7.594;2022-09-23T12:36:14;100795.28;;;36.10;20.75
20889;BME280;10604;51.976;7.594;2022-09-23T12:38:49;100791.25;;;35.93;21.70
20889;BME280;10604;51.976;7.594;2022-09-23T12:41:30;100785.56;;;36.08;21.45
20889;BME280;10604;51.976;7.594;2022-09-23T12:46:45;100770.78;;;34.74;21.77
20889;BME280;10604;51.976;7.594;2022-09-23T12:54:46;100763.84;;;35.32;20.61
20889;BME280;10604;51.976;7.594;2022-09-23T13:02:42;100757.78;;;34.96;20.72
20889;BME280;10604;51.976;7.594;2022-09-23T13:05:51;100760.56;;;34.34;22.71
20889;BME280;10604;51.976;7.594;2022-09-23T13:08:38;100759.78;;;34.18;22.00
20889;BME280;10604;51.976;7.594;2022-09-23T13:11:12;100755.22;;;33.76;21.50
20889;BME280;10604;51.976;7.594;2022-09-23T13:13:43;100755.22;;;33.76;22.66
20889;BME280;10604;51.976;7.594;2022-09-23T13:27:19;100749.34;;;34.56;21.44
20889;BME280;10604;51.976;7.594;2022-09-23T13:29:59;100744.13;;;34.34;21.82
20889;BME280;10604;51.976;7.594;2022-09-23T13:33:02;100737.91;;;34.81;21.50
20889;BME280;10604;51.976;7.594;2022-09-23T13:35:41;100730.34;;;34.89;22.05
20889;BME280;10604;51.976;7.594;2022-09-23T13:38:10;100735.16;;;35.28;22.65
20889;BME280;10604;51.976;7.594;2022-09-23T13:40:36;100728.78;;;34.39;22.01
20889;BME280;10604;51.976;7.594;2022-09-23T13:43:06;100730.41;;;34.06;21.33
20889;BME280;10604;51.976;7.594;2022-09-23T13:45:37;100724.00;;;34.20;20.62
20889;BME280;10604;51.976;7.594;2022-09-23T13:48:10;100719.31;;;33.65;21.13
20889;BME280;10604;51.976;7.594;2022-09-23T13:50:38;100718.34;;;32.79;21.52
20889;BME280;10604;51.976;7.594;2022-09-23T13:53:24;100718.22;;;33.80;22.29
20889;BME280;10604;51.976;7.594;2022-09-23T13:56:11;100721.06;;;33.30;21.58
20889;BME280;10604;51.976;7.594;2022-09-23T13:58:39;100716.25;;;33.32;21.81
20889;BME280;10604;51.976;7.594;2022-09-23T14:01:09;100717.50;;;33.15;21.67
20889;BME280;10604;51.976;7.594;2022-09-23T14:03:44;100715.69;;;32.71;22.02
20889;BME280;10604;51.976;7.594;2022-09-23T14:06:11;100720.34;;;33.07;22.02
20889;BME280;10604;51.976;7.594;2022-09-23T14:08:42;100716.28;;;32.00;23.01
20889;BME280;10604;51.976;7.594;2022-09-23T14:11:13;100708.19;;;33.45;21.36
20889;BME280;10604;51.976;7.594;2022-09-23T14:13:41;100700.88;;;33.31;22.05
20889;BME280;10604;51.976;7.594;2022-09-23T14:16:10;100703.53;;;33.88;22.22
20889;BME280;10604;51.976;7.594;2022-09-23T14:18:48;100704.97;;;33.41;21.83
20889;BME280;10604;51.976;7.594;2022-09-23T14:21:32;100700.88;;;33.31;21.77
20889;BME280;10604;51.976;7.594;2022-09-23T14:26:59;100701.00;;;33.44;21.92
20889;BME280;10604;51.976;7.594;2022-09-23T14:29:29;100698.13;;;33.52;22.30
20889;BME280;10604;51.976;7.594;2022-09-23T14:32:01;100696.25;;;32.95;23.20
20889;BME280;10604;51.976;7.594;2022-09-23T14:34:42;100692.00;;;32.93;22.47
20889;BME280;10604;51.976;7.594;2022-09-23T14:42:41;100685.25;;;32.30;22.40
20889;BME280;10604;51.976;7.594;2022-09-23T14:45:14;100691.00;;;32.50;22.63
20889;BME280;10604;51.976;7.594;2022-09-23T14:47:47;100693.78;;;33.00;22.08
20889;BME280;10604;51.976;7.594;2022-09-23T14:50:15;100685.09;;;33.54;22.44
20889;BME280;10604;51.976;7.594;2022-09-23T14:53:02;100683.06;;;33.63;23.31
20889;BME280;10604;51.976;7.594;2022-09-23T14:55:28;100689.53;;;33.34;22.41
20889;BME280;10604;51.976;7.594;2022-09-23T14:58:03;100686.75;;;33.98;22.54
20889;BME280;10604;51.976;7.594;2022-09-23T15:00:29;100679.34;;;33.70;22.88
20889;BME280;10604;51.976;7.594;2022-09-23T15:03:10;100677.97;;;33.17;22.47